Time;durP1;ratioP1;P1;durP2;ratioP2;P2;SDS_P1;SDS_P2;PMS_P1;PMS_P2;Temp;Humidity;BMP_temperature;BMP_pressure;BME280_temperature;BME280_humidity;BME280_pressure;Samples;Min_cycle;Max_cycle;Signal;HPM_P1;HPM_P2
2021/08/21 00:00:49;;;;;;;2.53;0.60;;;;;;;20.40;52.75;101190.34;5052503;28;20091;-60
2021/08/21 00:03:14;;;;;;;0.98;0.45;;;;;;;20.36;51.30;101187.13;5052703;28;20450;-60
2021/08/21 00:05:40;;;;;;;0.82;0.63;;;;;;;20.46;51.47;101177.91;5052699;28;20028;-60
2021/08/21 00:08:05;;;;;;;0.63;0.28;;;;;;;20.41;52.03;101186.63;5052703;28;20785;-60
2021/08/21 00:10:33;;;;;;;2.15;0.68;;;;;;;20.42;52.67;101185.59;5052679;28;20032;-60
2021/08/21 00:12:59;;;;;;;0.88;0.20;;;;;;;20.45;52.03;101185.25;5056700;28;20027;-59
2021/08/21 00:15:25;;;;;;;2.92;0.40;;;;;;;20.46;51.92;101181.47;5052410;28;20025;-59
2021/08/21 00:17:51;;;;;;;1.17;0.40;;;;;;;20.35;51.77;101192.78;5052209;28;20060;-59
2021/08/21 00:20:17;;;;;;;3.05;0.60;;;;;;;20.36;52.91;101194.47;5052164;28;20099;-60
2021/08/21 00:22:42;;;;;;;1.65;0.50;;;;;;;20.42;51.99;101193.78;5052727;28;20021;-60
2021/08/21 00:25:09;;;;;;;0.95;0.40;;;;;;;20.47;52.05;101191.38;5052234;28;20020;-60
2021/08/21 00:27:34;;;;;;;0.73;0.40;;;;;;;20.56;51.64;101187.59;5052353;28;20565;-60
2021/08/21 00:30:00;;;;;;;1.92;0.40;;;;;;;20.47;50.95;101194.09;5053016;28;20067;-60
2021/08/21 00:32:25;;;;;;;1.98;0.60;;;;;;;20.48;51.84;101184.88;5055871;28;20111;-60
2021/08/21 00:34:51;;;;;;;3.42;0.70;;;;;;;20.43;52.06;101200.94;5056173;28;20025;-60
2021/08/21 00:37:16;;;;;;;1.65;0.40;;;;;;;20.50;51.10;101199.25;5055899;28;20067;-60
2021/08/21 00:39:41;;;;;;;3.67;0.43;;;;;;;20.41;52.16;101200.28;5055517;28;20050;-60
2021/08/21 00:42:07;;;;;;;1.63;0.60;;;;;;;20.45;51.68;101196.16;5054487;28;20540;-59
2021/08/21 00:44:37;;;;;;;0.60;0.40;;;;;;;20.33;52.35;101203.03;5056205;28;20100;-60
2021/08/21 00:47:12;;;;;;;1.20;0.45;;;;;;;20.39;51.80;101202.31;5095931;28;20472;-60
2021/08/21 00:49:40;;;;;;;0.73;0.30;;;;;;;20.42;51.27;101201.97;5096132;28;20039;-60
2021/08/21 00:52:42;;;;;;;3.38;0.50;;;;;;;20.28;52.04;101209.00;5092596;28;20024;-57
2021/08/21 00:55:10;;;;;;;0.55;0.22;;;;;;;20.37;51.28;101204.38;5058898;28;20031;-59
2021/08/21 00:57:35;;;;;;;0.68;0.30;;;;;;;20.40;52.13;101204.00;5075083;28;20404;-60
2021/08/21 01:00:01;;;;;;;1.02;0.40;;;;;;;20.37;51.62;101209.81;5057187;28;20031;-60
2021/08/21 01:02:27;;;;;;;1.13;0.43;;;;;;;20.23;52.27;101202.34;5075047;28;20032;-60
2021/08/21 01:04:56;;;;;;;1.88;0.32;;;;;;;20.32;51.80;101220.41;5076085;28;20347;-60
2021/08/21 01:07:25;;;;;;;1.17;0.30;;;;;;;20.26;52.42;101213.78;5075223;28;20029;-60
2021/08/21 01:09:51;;;;;;;0.90;0.40;;;;;;;20.40;50.90;101214.94;5074835;28;20844;-60
2021/08/21 01:12:19;;;;;;;2.53;0.77;;;;;;;20.30;51.96;101217.00;5075161;28;20073;-59
2021/08/21 01:14:46;;;;;;;1.17;0.45;;;;;;;20.38;51.63;101222.47;5074731;28;20036;-61
2021/08/21 01:17:16;;;;;;;1.60;0.50;;;;;;;20.34;51.34;101216.50;5074701;28;20126;-59
2021/08/21 01:19:45;;;;;;;0.38;0.30;;;;;;;20.31;51.64;101221.44;5075039;28;20403;-60
2021/08/21 01:22:13;;;;;;;1.73;0.40;;;;;;;20.25;52.23;101217.53;5075530;28;20534;-60
2021/08/21 01:24:40;;;;;;;2.95;0.60;;;;;;;20.28;51.18;101222.63;5074955;28;20074;-60
2021/08/21 01:27:06;;;;;;;0.47;0.20;;;;;;;20.34;51.17;101226.56;5074492;28;20024;-61
2021/08/21 01:29:31;;;;;;;3.22;0.60;;;;;;;20.32;52.31;101229.47;5074955;28;20024;-60
2021/08/21 01:31:57;;;;;;;1.52;0.40;;;;;;;20.33;51.96;101230.31;5074713;28;20065;-60
2021/08/21 01:34:47;;;;;;;0.55;0.35;;;;;;;20.32;51.11;101234.06;5078767;28;20067;-58
2021/08/21 01:37:17;;;;;;;1.63;0.55;;;;;;;20.31;51.44;101240.53;5074585;28;20035;-60
2021/08/21 01:39:43;;;;;;;0.77;0.20;;;;;;;20.21;52.60;101239.91;5074524;28;20016;-59
2021/08/21 01:42:08;;;;;;;0.60;0.40;;;;;;;20.16;51.71;101243.16;5073825;28;20033;-60
2021/08/21 01:44:34;;;;;;;1.15;0.45;;;;;;;20.19;51.06;101244.69;5073852;28;20016;-60
2021/08/21 01:46:59;;;;;;;1.42;0.30;;;;;;;20.26;52.21;101245.69;5054490;28;20104;-60
2021/08/21 01:49:27;;;;;;;1.58;0.60;;;;;;;20.24;51.80;101242.28;5054649;28;20025;-60
2021/08/21 01:51:52;;;;;;;0.73;0.20;;;;;;;20.23;52.07;101246.03;5054133;28;20025;-60
2021/08/21 01:54:21;;;;;;;1.23;0.50;;;;;;;20.31;52.36;101248.75;5036071;28;20033;-59
2021/08/21 01:56:52;;;;;;;4.55;0.65;;;;;;;20.27;51.48;101247.38;5053999;28;20086;-60
2021/08/21 01:59:33;;;;;;;0.93;0.32;;;;;;;20.20;51.12;101247.25;5054362;28;20530;-60
2021/08/21 02:01:59;;;;;;;1.23;0.50;;;;;;;20.18;51.98;101245.72;5069716;28;20077;-60
2021/08/21 02:04:25;;;;;;;3.05;0.70;;;;;;;20.26;50.80;101251.16;5075324;28;20464;-60
2021/08/21 02:06:51;;;;;;;2.40;0.70;;;;;;;20.12;51.82;101250.81;5074286;28;20024;-61
2021/08/21 02:09:19;;;;;;;0.75;0.20;;;;;;;20.18;51.33;101259.38;5074155;28;20066;-60
2021/08/21 02:11:47;;;;;;;0.40;0.20;;;;;;;20.23;51.58;101254.22;5073745;28;20381;-60
2021/08/21 02:14:13;;;;;;;1.00;0.43;;;;;;;20.20;51.33;101251.84;5073233;28;20711;-60
2021/08/21 02:16:40;;;;;;;1.35;0.38;;;;;;;20.17;51.48;101257.66;5073543;28;20028;-60
2021/08/21 02:19:05;;;;;;;1.50;0.55;;;;;;;20.18;51.46;101262.09;5074078;28;20020;-60
2021/08/21 02:21:31;;;;;;;2.00;0.55;;;;;;;20.13;52.12;101258.00;5073833;28;20017;-61
2021/08/21 02:23:58;;;;;;;1.83;0.50;;;;;;;20.09;51.49;101256.63;5073334;28;20031;-60
2021/08/21 02:26:27;;;;;;;1.10;0.47;;;;;;;20.16;51.70;101253.22;5073505;28;20362;-61
2021/08/21 02:28:53;;;;;;;1.77;0.57;;;;;;;20.04;52.07;101253.59;5073236;28;20036;-60
2021/08/21 02:31:19;;;;;;;0.50;0.20;;;;;;;20.11;51.39;101253.72;5073748;28;20036;-60
2021/08/21 02:33:45;;;;;;;1.08;0.57;;;;;;;20.13;52.60;101252.53;5073458;28;20084;-60
2021/08/21 02:36:12;;;;;;;1.50;0.30;;;;;;;20.13;51.70;101247.06;5073291;28;20059;-60
2021/08/21 02:38:38;;;;;;;1.88;0.52;;;;;;;20.19;51.53;101255.63;5073261;28;20050;-60
2021/08/21 02:41:03;;;;;;;2.28;0.98;;;;;;;20.16;50.86;101256.81;5073410;28;20056;-60
2021/08/21 02:43:39;;;;;;;0.40;0.20;;;;;;;20.13;52.10;101260.72;5056757;28;20481;-58
2021/08/21 02:46:04;;;;;;;1.20;0.40;;;;;;;20.15;51.43;101260.53;5060415;28;20021;-61
2021/08/21 02:48:30;;;;;;;0.57;0.40;;;;;;;20.11;50.58;101262.78;5053316;28;20029;-61
2021/08/21 02:50:55;;;;;;;2.47;0.32;;;;;;;20.22;50.52;101260.72;5059370;28;20028;-60
2021/08/21 02:53:20;;;;;;;0.45;0.10;;;;;;;20.11;51.62;101260.03;5034370;28;20795;-60
2021/08/21 02:55:46;;;;;;;0.60;0.28;;;;;;;20.13;51.63;101266.19;5052997;28;20441;-60
2021/08/21 02:58:11;;;;;;;1.85;0.50;;;;;;;20.13;51.49;101265.31;5052620;28;20049;-61
2021/08/21 03:00:37;;;;;;;2.15;0.30;;;;;;;20.10;51.01;101269.25;5053769;28;20401;-61
2021/08/21 03:03:03;;;;;;;1.52;0.25;;;;;;;20.22;50.82;101266.19;5052809;28;20043;-60
2021/08/21 03:05:28;;;;;;;2.85;0.52;;;;;;;20.18;50.88;101264.84;5053303;28;20017;-61
2021/08/21 03:07:53;;;;;;;1.08;0.40;;;;;;;20.15;51.55;101268.72;5052977;28;20020;-61
2021/08/21 03:10:19;;;;;;;0.63;0.25;;;;;;;20.02;51.64;101273.88;5053142;28;20074;-60
2021/08/21 03:12:44;;;;;;;0.90;0.40;;;;;;;20.03;51.43;101265.53;5051706;28;20025;-61
2021/08/21 03:15:10;;;;;;;1.13;0.75;;;;;;;20.11;51.77;101265.50;5052966;28;20025;-60
2021/08/21 03:17:35;;;;;;;1.02;0.40;;;;;;;20.05;52.00;101265.34;5052935;28;20036;-60
2021/08/21 03:20:04;;;;;;;1.80;0.45;;;;;;;20.04;51.47;101275.41;5055823;28;20032;-58
2021/08/21 03:22:29;;;;;;;1.55;0.50;;;;;;;20.06;51.42;101273.38;5074685;28;20024;-61
2021/08/21 03:24:55;;;;;;;1.90;0.45;;;;;;;20.00;51.83;101279.53;5072649;28;20023;-60
2021/08/21 03:27:20;;;;;;;1.77;0.47;;;;;;;20.04;51.83;101275.41;5072570;28;20119;-61
2021/08/21 03:29:45;;;;;;;2.60;0.73;;;;;;;20.00;51.23;101284.97;5073663;28;20025;-60
2021/08/21 03:32:10;;;;;;;1.23;0.43;;;;;;;20.02;51.11;101288.38;5072915;28;20511;-61
2021/08/21 03:34:37;;;;;;;2.58;0.50;;;;;;;20.07;52.14;101286.00;5072567;28;20025;-61
2021/08/21 03:37:03;;;;;;;2.95;0.70;;;;;;;20.07;51.60;101290.59;5054315;28;20063;-60
2021/08/21 03:39:29;;;;;;;1.25;0.57;;;;;;;20.04;51.86;101291.78;5072861;28;20079;-60
2021/08/21 03:41:54;;;;;;;0.80;0.30;;;;;;;19.98;51.77;101300.66;5073161;28;20377;-59
2021/08/21 03:44:19;;;;;;;1.27;0.47;;;;;;;19.97;51.76;101300.81;5072744;28;20461;-60
2021/08/21 03:46:45;;;;;;;1.00;0.30;;;;;;;20.04;51.21;101302.72;5054003;28;20020;-60
2021/08/21 03:49:10;;;;;;;0.45;0.30;;;;;;;20.03;51.40;101290.09;5052454;28;20025;-60
2021/08/21 03:51:36;;;;;;;1.77;0.52;;;;;;;20.01;51.00;101297.59;5052537;28;20033;-60
2021/08/21 03:54:01;;;;;;;1.15;0.45;;;;;;;20.06;51.64;101295.19;5052273;28;20025;-61
2021/08/21 03:56:26;;;;;;;1.25;0.22;;;;;;;20.03;51.26;101301.00;5052564;28;20489;-60
2021/08/21 03:58:52;;;;;;;2.90;0.25;;;;;;;19.94;52.04;101304.75;5056198;28;20052;-61
2021/08/21 04:01:17;;;;;;;2.22;0.35;;;;;;;20.06;51.44;101305.25;5052581;28;20104;-60
2021/08/21 04:03:42;;;;;;;0.50;0.17;;;;;;;21.15;49.56;101310.94;5052583;28;20024;-60
2021/08/21 04:06:08;;;;;;;0.70;0.20;;;;;;;21.49;48.97;101309.78;5055216;28;20032;-60
2021/08/21 04:08:33;;;;;;;0.52;0.13;;;;;;;21.70;47.17;101310.00;5056483;28;20062;-60
2021/08/21 04:10:59;;;;;;;0.13;0.10;;;;;;;21.83;47.06;101306.63;5055992;28;20131;-61
2021/08/21 04:13:24;;;;;;;0.30;0.20;;;;;;;21.93;46.84;101309.97;5056628;28;20036;-61
2021/08/21 04:15:49;;;;;;;0.88;0.32;;;;;;;22.09;47.71;101317.22;5055865;28;20021;-60
2021/08/21 04:18:15;;;;;;;0.70;0.20;;;;;;;22.12;47.10;101320.44;5056040;28;20021;-61
2021/08/21 04:20:41;;;;;;;1.25;0.28;;;;;;;22.25;47.02;101321.72;5055887;28;20035;-61
2021/08/21 04:23:06;;;;;;;0.30;0.20;;;;;;;22.20;47.67;101319.53;5055691;28;20025;-61
2021/08/21 04:25:31;;;;;;;0.93;0.32;;;;;;;22.27;47.16;101320.47;5055833;28;20035;-60
2021/08/21 04:27:57;;;;;;;0.55;0.20;;;;;;;22.38;46.89;101327.41;5055816;28;20104;-60
2021/08/21 04:30:22;;;;;;;0.65;0.20;;;;;;;22.35;47.78;101328.63;5056151;28;20047;-60
2021/08/21 04:32:48;;;;;;;0.28;0.20;;;;;;;22.34;48.01;101326.94;5055891;28;20108;-60
2021/08/21 04:35:21;;;;;;;0.28;0.10;;;;;;;22.46;47.85;101330.91;5055682;28;20524;-59
2021/08/21 04:37:46;;;;;;;1.90;0.35;;;;;;;22.49;48.54;101330.53;5056399;28;20095;-60
2021/08/21 04:40:12;;;;;;;1.00;0.10;;;;;;;22.48;48.79;101331.56;5055710;28;20119;-60
2021/08/21 04:42:37;;;;;;;0.25;0.10;;;;;;;22.55;47.81;101339.06;5055619;28;20033;-61
2021/08/21 04:45:05;;;;;;;0.17;0.10;;;;;;;22.57;48.81;101336.97;5055808;28;20355;-61
2021/08/21 04:47:30;;;;;;;0.90;0.30;;;;;;;22.56;48.03;101336.13;5055333;28;20036;-61
2021/08/21 04:49:56;;;;;;;3.40;0.45;;;;;;;22.66;47.35;101341.31;5055475;28;20378;-60
2021/08/21 04:52:22;;;;;;;1.80;0.30;;;;;;;22.59;49.07;101329.41;5055635;28;20029;-61
2021/08/21 04:54:49;;;;;;;0.30;0.10;;;;;;;22.64;48.33;101341.50;5054836;28;20025;-60
2021/08/21 04:57:15;;;;;;;1.52;0.22;;;;;;;22.64;48.71;101337.91;5055096;28;20080;-61
2021/08/21 04:59:40;;;;;;;1.13;0.30;;;;;;;22.66;48.24;101344.03;5055120;28;20052;-60
2021/08/21 05:02:05;;;;;;;0.20;0.20;;;;;;;22.65;48.39;101345.94;5057160;28;20378;-60
2021/08/21 05:04:31;;;;;;;0.10;0.10;;;;;;;22.61;47.84;101343.78;5055513;28;20013;-59
2021/08/21 05:06:57;;;;;;;0.80;0.25;;;;;;;22.72;48.58;101346.91;5055025;28;20025;-60
2021/08/21 05:09:22;;;;;;;0.32;0.13;;;;;;;22.67;48.95;101353.97;5055331;28;20037;-60
2021/08/21 05:11:48;;;;;;;0.22;0.10;;;;;;;22.66;48.24;101344.91;5055068;28;20594;-60
2021/08/21 05:14:13;;;;;;;1.77;0.28;;;;;;;22.70;48.42;101356.38;5054667;28;20484;-61
2021/08/21 05:16:42;;;;;;;1.45;0.20;;;;;;;22.74;48.39;101354.94;5053596;28;20109;-61
2021/08/21 05:19:15;;;;;;;0.32;0.20;;;;;;;22.74;49.03;101361.28;5055161;28;20029;-60
2021/08/21 05:21:47;;;;;;;1.70;0.30;;;;;;;22.77;48.83;101349.94;5054941;28;20108;-60
2021/08/21 05:24:13;;;;;;;0.43;0.20;;;;;;;22.79;48.12;101361.53;5054975;28;20425;-61
2021/08/21 05:26:39;;;;;;;1.15;0.10;;;;;;;22.76;49.54;101359.19;5055056;28;20029;-61
2021/08/21 05:29:05;;;;;;;0.20;0.03;;;;;;;22.85;48.84;101364.63;5054710;28;20017;-61
2021/08/21 05:31:31;;;;;;;1.40;0.47;;;;;;;22.79;48.60;101357.97;5054696;28;20032;-60
2021/08/21 05:33:56;;;;;;;0.88;0.30;;;;;;;22.73;48.58;101365.06;5063764;28;20037;-60
2021/08/21 05:36:22;;;;;;;0.50;0.20;;;;;;;22.81;48.44;101364.09;5067422;28;20024;-61
2021/08/21 05:38:47;;;;;;;0.93;0.40;;;;;;;22.78;48.54;101367.22;5054271;28;20025;-60
2021/08/21 05:41:13;;;;;;;0.63;0.20;;;;;;;22.86;48.68;101369.06;5036581;28;20021;-60
2021/08/21 05:43:38;;;;;;;1.23;0.35;;;;;;;22.87;49.12;101373.50;5054679;28;20381;-60
2021/08/21 05:46:03;;;;;;;0.73;0.20;;;;;;;22.83;48.94;101369.41;5080679;28;20031;-59
2021/08/21 05:48:29;;;;;;;0.73;0.32;;;;;;;22.88;49.54;101373.31;5094842;28;20020;-60
2021/08/21 05:50:54;;;;;;;0.10;0.10;;;;;;;22.93;49.00;101373.59;5094245;28;20024;-60
2021/08/21 05:53:20;;;;;;;0.82;0.20;;;;;;;22.96;49.26;101380.59;5094317;28;20020;-61
2021/08/21 05:55:45;;;;;;;0.90;0.10;;;;;;;22.92;48.25;101377.38;5094498;28;20036;-61
2021/08/21 05:58:10;;;;;;;0.40;0.20;;;;;;;22.97;48.47;101382.28;5094312;28;20048;-60
2021/08/21 06:00:36;;;;;;;0.90;0.10;;;;;;;22.97;48.96;101376.81;5086142;28;20036;-61
2021/08/21 06:03:01;;;;;;;1.60;0.20;;;;;;;22.95;48.30;101385.22;5073899;28;20052;-60
2021/08/21 06:05:27;;;;;;;2.60;0.30;;;;;;;22.98;49.31;101387.59;5074009;28;20065;-61
2021/08/21 06:07:52;;;;;;;0.75;0.15;;;;;;;22.97;48.29;101394.09;5073935;28;20027;-60
2021/08/21 06:10:17;;;;;;;0.22;0.10;;;;;;;23.00;49.19;101388.25;5074051;28;20066;-60
2021/08/21 06:12:45;;;;;;;0.28;0.10;;;;;;;22.97;48.91;101394.09;5078654;28;20116;-58
2021/08/21 06:15:11;;;;;;;0.17;0.05;;;;;;;22.99;49.06;101386.53;5073856;28;20424;-60
2021/08/21 06:17:36;;;;;;;0.88;0.15;;;;;;;22.97;49.09;101388.63;5073780;28;20477;-61
2021/08/21 06:20:04;;;;;;;0.30;0.20;;;;;;;22.97;48.71;101396.84;5073457;28;20035;-61
2021/08/21 06:22:29;;;;;;;1.00;0.22;;;;;;;22.98;48.38;101384.84;5073903;28;20024;-61
2021/08/21 06:24:54;;;;;;;0.65;0.10;;;;;;;22.99;48.56;101392.03;5073365;28;20047;-61
2021/08/21 06:27:20;;;;;;;1.13;0.10;;;;;;;23.04;47.85;101402.44;5073278;28;20028;-60
2021/08/21 06:29:45;;;;;;;0.25;0.10;;;;;;;23.02;49.27;101402.63;5073999;28;20024;-61
2021/08/21 06:32:11;;;;;;;2.30;0.43;;;;;;;23.01;48.41;101400.94;5073531;28;20025;-61
2021/08/21 06:34:36;;;;;;;0.57;0.20;;;;;;;23.01;47.72;101406.44;5073536;28;20355;-61
2021/08/21 06:37:03;;;;;;;1.88;0.75;;;;;;;22.95;48.59;101401.69;5073053;28;20514;-61
2021/08/21 06:39:28;;;;;;;0.38;0.10;;;;;;;23.03;48.62;101411.72;5073463;28;20441;-60
2021/08/21 06:41:54;;;;;;;0.20;0.10;;;;;;;23.08;48.06;101399.13;5073347;28;20059;-60
2021/08/21 06:44:19;;;;;;;0.20;0.20;;;;;;;23.05;48.92;101396.78;5073432;28;20020;-60
2021/08/21 06:46:45;;;;;;;0.40;0.13;;;;;;;23.04;48.28;101389.59;5055215;28;20496;-60
2021/08/21 06:49:10;;;;;;;0.05;0.03;;;;;;;23.02;48.76;101391.69;5053022;28;20037;-60
2021/08/21 06:51:35;;;;;;;0.30;0.10;;;;;;;23.10;48.39;101398.94;5053443;28;20044;-61
2021/08/21 06:54:01;;;;;;;0.85;0.20;;;;;;;23.07;48.44;101382.88;5053115;28;20021;-60
2021/08/21 06:56:26;;;;;;;0.82;0.30;;;;;;;23.03;48.91;101400.75;5053010;28;20076;-61
2021/08/21 06:58:52;;;;;;;0.45;0.20;;;;;;;23.13;48.97;101404.03;5052738;28;20053;-60
2021/08/21 07:01:17;;;;;;;1.02;0.38;;;;;;;23.08;48.70;101401.88;5053245;28;20094;-61
2021/08/21 07:03:42;;;;;;;1.45;0.30;;;;;;;23.08;50.36;101407.34;5053177;28;20374;-60
2021/08/21 07:06:08;;;;;;;1.05;0.17;;;;;;;23.11;48.73;101395.16;5051924;28;20087;-61
2021/08/21 07:08:33;;;;;;;0.38;0.10;;;;;;;23.06;49.27;101398.47;5052873;28;20378;-60
2021/08/21 07:10:58;;;;;;;0.43;0.20;;;;;;;22.97;49.76;101402.34;5053357;28;20075;-59
2021/08/21 07:13:27;;;;;;;0.40;0.32;;;;;;;22.91;49.26;101411.31;5066876;28;20391;-61
2021/08/21 07:15:52;;;;;;;0.55;0.20;;;;;;;22.88;48.62;101422.66;5055376;28;20025;-61
2021/08/21 07:18:18;;;;;;;2.30;0.40;;;;;;;22.76;48.54;101414.00;5073077;28;20027;-60
2021/08/21 07:20:43;;;;;;;0.98;0.13;;;;;;;22.73;47.85;101424.50;5072983;28;20035;-60
2021/08/21 07:23:08;;;;;;;0.70;0.20;;;;;;;22.70;47.37;101402.94;5064344;28;20032;-59
2021/08/21 07:25:34;;;;;;;1.63;0.30;;;;;;;22.62;48.09;101416.72;5055698;28;20111;-60
2021/08/21 07:28:00;;;;;;;0.50;0.20;;;;;;;22.63;47.28;101418.41;5052880;28;20036;-60
2021/08/21 07:30:25;;;;;;;1.10;0.40;;;;;;;22.60;47.36;101418.81;5057132;28;20058;-61
2021/08/21 07:32:50;;;;;;;0.65;0.20;;;;;;;22.56;47.01;101422.97;5072525;28;20409;-60
2021/08/21 07:35:16;;;;;;;2.85;0.52;;;;;;;22.60;47.16;101419.66;5072630;28;20617;-60
2021/08/21 07:37:41;;;;;;;2.88;0.28;;;;;;;22.52;46.04;101417.84;5072561;28;20024;-61
2021/08/21 07:40:08;;;;;;;0.70;0.32;;;;;;;22.59;46.91;101419.84;5073551;28;20496;-60
2021/08/21 07:42:33;;;;;;;1.30;0.60;;;;;;;22.49;47.34;101423.69;5076791;28;20416;-61
2021/08/21 07:44:59;;;;;;;1.05;0.20;;;;;;;22.52;46.57;101422.47;5076705;28;20029;-61
2021/08/21 07:47:24;;;;;;;1.83;0.20;;;;;;;22.50;47.18;101425.38;5077194;28;20134;-61
2021/08/21 07:49:49;;;;;;;1.42;0.25;;;;;;;22.56;47.24;101422.97;5058757;28;20490;-61
2021/08/21 07:52:15;;;;;;;1.05;0.15;;;;;;;22.54;46.87;101425.03;5076780;28;20044;-59
2021/08/21 07:54:40;;;;;;;3.10;0.30;;;;;;;22.59;46.84;101425.31;5076586;28;20024;-60
2021/08/21 07:57:05;;;;;;;0.35;0.20;;;;;;;22.58;45.97;101420.88;5075968;28;20048;-60
2021/08/21 07:59:31;;;;;;;0.15;0.03;;;;;;;22.55;46.37;101432.22;5076754;28;20050;-60
2021/08/21 08:01:57;;;;;;;0.90;0.10;;;;;;;22.58;47.04;101420.88;5076680;28;20050;-61
2021/08/21 08:04:22;;;;;;;0.57;0.38;;;;;;;22.52;46.66;101430.69;5076739;28;20515;-60
2021/08/21 08:06:48;;;;;;;0.80;0.20;;;;;;;22.47;46.98;101424.91;5076562;28;20028;-61
2021/08/21 08:09:13;;;;;;;0.68;0.30;;;;;;;22.46;47.65;101424.06;5076530;28;20028;-60
2021/08/21 08:11:38;;;;;;;0.75;0.13;;;;;;;22.47;46.29;101433.97;5075997;28;20115;-61
2021/08/21 08:14:04;;;;;;;2.05;0.20;;;;;;;22.52;46.02;101434.28;5076114;28;20021;-61
2021/08/21 08:16:29;;;;;;;0.77;0.30;;;;;;;22.49;46.68;101431.91;5076856;28;20024;-61
2021/08/21 08:18:54;;;;;;;1.10;0.28;;;;;;;22.43;46.48;101446.34;5075922;28;20032;-61
2021/08/21 08:21:22;;;;;;;1.25;0.10;;;;;;;22.52;47.03;101439.78;5076221;28;20024;-61
2021/08/21 08:23:49;;;;;;;1.15;0.35;;;;;;;22.52;45.79;101442.50;5075978;28;20062;-60
2021/08/21 08:26:15;;;;;;;1.20;0.28;;;;;;;22.51;46.93;101448.19;5076173;28;20028;-60
2021/08/21 08:28:40;;;;;;;0.65;0.30;;;;;;;22.50;46.01;101457.41;5075943;28;20028;-60
2021/08/21 08:31:06;;;;;;;0.32;0.10;;;;;;;22.43;46.51;101456.44;5075669;28;20012;-60
2021/08/21 08:33:33;;;;;;;1.65;0.40;;;;;;;22.51;46.64;101454.50;5075637;28;20036;-60
2021/08/21 08:35:58;;;;;;;0.40;0.20;;;;;;;22.45;47.12;101471.66;5072560;28;20031;-60
2021/08/21 08:38:24;;;;;;;1.05;0.20;;;;;;;22.48;46.10;101463.06;5075201;28;20029;-59
2021/08/21 08:40:49;;;;;;;2.03;0.40;;;;;;;22.42;46.82;101466.56;5078368;28;20563;-60
2021/08/21 08:43:15;;;;;;;1.70;0.35;;;;;;;22.49;46.66;101461.19;5075772;28;20032;-60
2021/08/21 08:45:42;;;;;;;0.47;0.20;;;;;;;22.51;47.08;101465.47;5066048;28;20139;-61
2021/08/21 08:48:07;;;;;;;0.82;0.28;;;;;;;22.47;45.91;101469.59;5055555;28;20474;-61
2021/08/21 08:50:33;;;;;;;0.60;0.28;;;;;;;22.48;47.29;101460.34;5055524;28;20036;-61
2021/08/21 08:52:58;;;;;;;1.13;0.30;;;;;;;22.39;46.42;101472.41;5055370;28;20025;-61
2021/08/21 08:55:24;;;;;;;0.45;0.22;;;;;;;22.47;46.80;101469.59;5055496;28;20056;-61
2021/08/21 08:57:50;;;;;;;0.95;0.25;;;;;;;22.39;47.06;101466.94;5054942;28;20041;-61
2021/08/21 09:00:21;;;;;;;2.00;0.40;;;;;;;22.42;47.32;101477.53;5055807;28;20024;-61
2021/08/21 09:02:51;;;;;;;0.57;0.20;;;;;;;22.42;46.95;101479.41;5055117;28;20021;-60
2021/08/21 09:05:19;;;;;;;0.95;0.35;;;;;;;22.45;47.03;101477.16;5055569;28;20017;-60
2021/08/21 09:07:51;;;;;;;2.30;0.20;;;;;;;22.51;47.23;101470.94;5055343;28;20094;-61
2021/08/21 09:10:25;;;;;;;0.55;0.13;;;;;;;22.40;46.61;101479.59;5055353;28;20104;-60
2021/08/21 09:13:03;;;;;;;1.35;0.15;;;;;;;22.47;47.50;101477.81;5055749;28;20032;-60
2021/08/21 09:15:30;;;;;;;1.27;0.20;;;;;;;22.45;46.68;101471.66;5054842;28;20052;-61
2021/08/21 09:17:59;;;;;;;1.05;0.45;;;;;;;22.42;46.96;101472.03;5054839;28;20036;-60
2021/08/21 09:20:24;;;;;;;0.70;0.17;;;;;;;22.48;46.76;101482.25;5055040;28;20025;-60
2021/08/21 09:22:50;;;;;;;1.42;0.28;;;;;;;22.39;46.92;101483.38;5054979;28;20495;-61
2021/08/21 09:25:35;;;;;;;1.20;0.38;;;;;;;22.43;47.03;101481.09;5054673;28;20541;-60
2021/08/21 09:28:18;;;;;;;0.32;0.17;;;;;;;22.36;46.73;101483.75;5054295;28;20037;-61
2021/08/21 09:30:44;;;;;;;1.13;0.30;;;;;;;22.40;46.87;101484.22;5054948;28;20381;-60
2021/08/21 09:33:09;;;;;;;1.25;0.45;;;;;;;22.38;47.11;101484.41;5054796;28;20047;-60
2021/08/21 09:35:35;;;;;;;0.70;0.40;;;;;;;22.42;46.92;101491.22;5054533;28;20025;-59
2021/08/21 09:38:02;;;;;;;1.50;0.30;;;;;;;22.45;47.14;101482.63;5054501;28;20025;-60
2021/08/21 09:40:36;;;;;;;3.08;0.40;;;;;;;22.45;47.28;101482.63;5054603;28;20079;-60
2021/08/21 09:43:07;;;;;;;1.38;0.35;;;;;;;22.40;46.98;101479.59;5054474;28;20078;-60
2021/08/21 09:45:35;;;;;;;0.73;0.30;;;;;;;22.44;47.09;101486.41;5071726;28;20020;-60
2021/08/21 09:48:10;;;;;;;0.43;0.20;;;;;;;22.45;46.46;101477.16;5094767;28;20084;-58
2021/08/21 09:50:36;;;;;;;;;;;;;;;22.43;47.41;101476.47;5096097;28;20020;-61
2021/08/21 09:53:04;;;;;;;0.63;0.13;;;;;;;22.44;47.49;101483.66;5094556;28;19922;-60
2021/08/21 09:55:30;;;;;;;1.40;0.20;;;;;;;22.46;47.54;101478.84;5094677;28;20032;-60
2021/08/21 09:58:02;;;;;;;1.45;0.20;;;;;;;22.47;46.84;101483.28;5093574;28;20562;-60
2021/08/21 10:00:32;;;;;;;1.52;0.13;;;;;;;22.39;46.60;101479.78;5075895;28;20440;-61
2021/08/21 10:02:58;;;;;;;0.75;0.30;;;;;;;22.42;47.21;101485.72;5071042;28;20427;-61
2021/08/21 10:05:24;;;;;;;1.30;0.20;;;;;;;22.41;47.24;101492.25;5073777;28;20043;-60
2021/08/21 10:07:57;;;;;;;1.15;0.30;;;;;;;22.41;47.27;101500.47;5074060;28;20048;-60
2021/08/21 10:10:23;;;;;;;0.47;0.13;;;;;;;22.43;47.21;101506.63;5073818;28;20085;-60
2021/08/21 10:12:54;;;;;;;0.82;0.30;;;;;;;22.46;47.35;101514.47;5074039;28;20024;-59
2021/08/21 10:15:21;;;;;;;0.45;0.10;;;;;;;22.39;47.06;101497.06;5074524;28;20020;-60
2021/08/21 10:17:47;;;;;;;2.28;0.60;;;;;;;22.37;47.66;101496.41;5073549;28;20046;-60
2021/08/21 10:20:13;;;;;;;1.88;0.60;;;;;;;22.50;47.09;101491.13;5073812;28;20021;-61
2021/08/21 10:22:40;;;;;;;2.42;0.40;;;;;;;22.47;46.84;101497.00;5073956;28;20024;-60
2021/08/21 10:25:08;;;;;;;0.98;0.20;;;;;;;22.38;47.04;101503.59;5074091;28;20020;-62
2021/08/21 10:27:56;;;;;;;0.55;0.25;;;;;;;22.34;47.52;101505.00;5074529;28;20031;-61
2021/08/21 10:30:26;;;;;;;1.65;0.20;;;;;;;22.46;47.10;101499.91;5073572;28;20029;-61
2021/08/21 10:33:01;;;;;;;1.75;0.20;;;;;;;22.43;47.25;101498.41;5073720;28;20021;-61
2021/08/21 10:35:49;;;;;;;1.95;0.40;;;;;;;22.43;47.44;101501.13;5073621;28;20031;-60
2021/08/21 10:38:33;;;;;;;1.45;0.30;;;;;;;22.41;47.27;101500.47;5073294;28;20472;-61
2021/08/21 10:41:00;;;;;;;1.27;0.28;;;;;;;22.51;47.00;101502.97;5055930;28;20020;-60
2021/08/21 10:43:48;;;;;;;2.20;0.30;;;;;;;22.49;46.84;101505.03;5073337;28;20365;-61
2021/08/21 10:46:34;;;;;;;0.45;0.10;;;;;;;22.45;47.90;101503.69;5059082;28;20064;-61
2021/08/21 10:49:06;;;;;;;1.23;0.40;;;;;;;22.36;47.73;101511.13;5011300;28;20053;-61
2021/08/21 10:51:40;;;;;;;2.15;0.40;;;;;;;22.43;47.25;101511.25;5011982;28;20037;-59
2021/08/21 10:54:25;;;;;;;1.20;0.13;;;;;;;22.43;47.48;101512.09;5011303;28;20497;-60
2021/08/21 10:56:51;;;;;;;0.28;0.10;;;;;;;22.42;46.92;101515.03;4951783;28;20035;-61
2021/08/21 10:59:42;;;;;;;1.63;0.38;;;;;;;22.45;47.15;101520.13;4952099;28;20129;-60
2021/08/21 11:02:26;;;;;;;0.45;0.20;;;;;;;22.39;47.29;101523.59;4936541;29;20118;-61
2021/08/21 11:04:52;;;;;;;1.45;0.35;;;;;;;22.41;47.70;101525.13;4952543;29;20023;-61
2021/08/21 11:07:29;;;;;;;0.65;0.20;;;;;;;22.50;47.16;101524.00;4953101;29;20093;-61
2021/08/21 11:10:14;;;;;;;0.93;0.20;;;;;;;22.45;47.67;101531.09;4953532;29;20109;-60
2021/08/21 11:12:40;;;;;;;0.88;0.15;;;;;;;22.45;47.80;101523.72;4953097;29;20035;-60
2021/08/21 11:15:16;;;;;;;0.63;0.20;;;;;;;22.37;47.64;101529.28;4951698;28;20748;-61
2021/08/21 11:17:42;;;;;;;0.70;0.22;;;;;;;22.43;47.39;101527.69;4952663;29;20035;-61
2021/08/21 11:20:37;;;;;;;0.88;0.20;;;;;;;22.49;48.16;101529.69;4952506;29;20039;-60
2021/08/21 11:23:08;;;;;;;1.05;0.50;;;;;;;22.39;47.43;101532.69;4936124;29;20044;-61
2021/08/21 11:25:43;;;;;;;1.27;0.35;;;;;;;22.43;47.12;101535.91;4938740;29;20031;-61